Time;durP1;ratioP1;P1;durP2;ratioP2;P2;SDS_P1;SDS_P2;PMS_P1;PMS_P2;Temp;Humidity;BMP_temperature;BMP_pressure;BME280_temperature;BME280_humidity;BME280_pressure;Samples;Min_cycle;Max_cycle;Signal;HPM_P1;HPM_P2
2022/01/13 04:02:00;;;;;;;229.43;34.00;;;4.70;99.90;;;;;;5749526;22;20078;-79
2022/01/13 04:04:31;;;;;;;208.27;27.65;;;4.70;99.90;;;;;;4883087;29;20048;-82
2022/01/13 04:07:13;;;;;;;216.65;26.80;;;4.80;99.90;;;;;;4883365;29;20048;-81
2022/01/13 04:09:38;;;;;;;172.88;23.23;;;4.80;99.90;;;;;;4921235;29;20051;-81
2022/01/13 04:12:06;;;;;;;304.70;34.30;;;4.70;99.90;;;;;;4940833;28;20046;-81
2022/01/13 04:17:14;;;;;;;258.73;30.95;;;4.80;99.90;;;;;;4956739;29;20051;-83
2022/01/13 04:19:41;;;;;;;266.65;32.00;;;4.80;99.90;;;;;;4956478;29;20039;-82
2022/01/13 04:22:08;;;;;;;326.67;36.45;;;4.80;99.90;;;;;;4956537;29;20047;-81
2022/01/13 04:24:35;;;;;;;209.60;28.48;;;4.80;99.90;;;;;;4956269;29;20102;-81
2022/01/13 04:27:01;;;;;;;265.90;34.65;;;4.80;99.90;;;;;;4956639;29;20369;-83
2022/01/13 04:31:55;;;;;;;289.58;34.53;;;4.80;99.90;;;;;;4956188;29;20053;-81
2022/01/13 04:34:20;;;;;;;248.93;33.55;;;4.80;99.90;;;;;;4956299;29;20035;-81
2022/01/13 04:36:47;;;;;;;299.30;35.40;;;4.80;99.90;;;;;;4956315;29;20118;-80
2022/01/13 04:39:15;;;;;;;280.95;33.13;;;4.80;99.90;;;;;;4957388;28;20043;-82
2022/01/13 04:41:45;;;;;;;234.23;28.55;;;4.80;99.90;;;;;;4956718;29;20039;-82
2022/01/13 04:44:14;;;;;;;246.13;30.40;;;4.90;99.90;;;;;;4940052;29;20126;-82
2022/01/13 04:46:40;;;;;;;308.27;35.08;;;4.80;99.90;;;;;;4955893;29;20047;-83
2022/01/13 04:49:07;;;;;;;238.70;31.77;;;4.80;99.90;;;;;;4957516;28;20110;-81
2022/01/13 04:51:33;;;;;;;207.70;27.75;;;4.90;99.90;;;;;;4956026;29;20102;-83
2022/01/13 04:53:58;;;;;;;257.73;32.67;;;4.90;99.90;;;;;;4956080;29;20403;-83
2022/01/13 04:56:37;;;;;;;294.45;36.67;;;4.80;99.90;;;;;;4955793;29;20039;-82
2022/01/13 04:59:04;;;;;;;254.68;34.10;;;4.90;99.90;;;;;;4956275;29;20109;-81
2022/01/13 05:01:29;;;;;;;257.80;35.08;;;4.90;99.90;;;;;;4939537;29;20054;-80
2022/01/13 05:03:55;;;;;;;261.38;37.53;;;4.90;99.90;;;;;;4939927;29;20232;-83
2022/01/13 05:06:21;;;;;;;241.63;31.60;;;4.90;99.90;;;;;;4955645;29;20467;-81
2022/01/13 05:08:48;;;;;;;269.50;34.58;;;4.90;99.90;;;;;;4955721;29;20047;-82
2022/01/13 05:11:15;;;;;;;245.85;33.13;;;4.90;99.90;;;;;;4957246;28;20114;-82
2022/01/13 05:13:40;;;;;;;241.05;36.08;;;4.90;99.90;;;;;;4955659;29;20451;-81
2022/01/13 05:16:09;;;;;;;258.75;33.60;;;4.90;99.90;;;;;;4955629;29;20035;-81
2022/01/13 05:18:48;;;;;;;264.77;35.58;;;4.80;99.90;;;;;;4956920;28;20449;-81
2022/01/13 05:21:44;;;;;;;187.68;28.10;;;4.90;99.90;;;;;;4939642;29;20128;-81
2022/01/13 05:24:09;;;;;;;247.25;33.90;;;4.80;99.90;;;;;;4940017;29;20039;-81
2022/01/13 05:26:36;;;;;;;233.82;30.42;;;4.80;99.90;;;;;;4955128;29;20077;-82
2022/01/13 05:29:02;;;;;;;277.15;33.45;;;4.80;99.90;;;;;;4955044;29;20039;-81
2022/01/13 05:31:28;;;;;;;259.80;34.05;;;4.80;99.90;;;;;;4955240;29;20035;-81
2022/01/13 05:33:53;;;;;;;140.48;18.90;;;4.80;99.90;;;;;;4955260;29;20090;-81
2022/01/13 05:36:19;;;;;;;131.70;18.60;;;4.80;99.90;;;;;;4955297;29;20094;-80
2022/01/13 05:38:44;;;;;;;231.55;28.73;;;4.80;99.90;;;;;;4954927;29;20053;-82
2022/01/13 05:41:10;;;;;;;263.38;31.13;;;4.80;99.90;;;;;;4954857;29;20066;-82
2022/01/13 05:43:36;;;;;;;254.43;29.52;;;4.80;99.90;;;;;;4939491;29;20138;-80
2022/01/13 05:46:03;;;;;;;195.45;27.05;;;4.80;99.90;;;;;;4954846;29;20047;-82
2022/01/13 05:48:29;;;;;;;185.57;25.67;;;4.80;99.90;;;;;;4956098;28;20502;-81
2022/01/13 05:50:55;;;;;;;205.05;24.67;;;4.80;99.90;;;;;;4938234;29;20463;-82
2022/01/13 05:53:20;;;;;;;230.52;26.80;;;4.80;99.90;;;;;;4954449;29;20157;-82
2022/01/13 05:55:46;;;;;;;260.52;29.58;;;4.80;99.90;;;;;;4938991;29;20051;-80
2022/01/13 05:58:12;;;;;;;262.48;29.98;;;4.80;99.90;;;;;;4954633;29;20047;-81
2022/01/13 06:00:38;;;;;;;235.18;29.17;;;4.70;99.90;;;;;;4954435;29;20051;-81
2022/01/13 06:03:04;;;;;;;238.57;29.40;;;4.80;99.90;;;;;;4955883;28;20054;-81
2022/01/13 06:05:31;;;;;;;239.63;27.30;;;4.70;99.90;;;;;;4956264;28;20152;-81
2022/01/13 06:07:57;;;;;;;236.32;29.48;;;4.70;99.90;;;;;;4955004;29;20039;-82
2022/01/13 06:10:23;;;;;;;221.60;28.77;;;4.70;99.90;;;;;;4955099;29;20039;-79
2022/01/13 06:12:50;;;;;;;205.40;27.48;;;4.70;99.90;;;;;;4954244;29;20121;-80
2022/01/13 06:15:18;;;;;;;197.45;28.75;;;4.70;99.90;;;;;;4938723;29;20055;-80
2022/01/13 06:17:45;;;;;;;236.05;31.55;;;4.60;99.90;;;;;;4955313;29;20453;-81
2022/01/13 06:20:13;;;;;;;255.77;31.33;;;4.60;99.90;;;;;;4954522;29;20116;-81
2022/01/13 06:22:40;;;;;;;265.00;31.88;;;4.60;99.90;;;;;;4954422;29;20483;-80
2022/01/13 06:25:07;;;;;;;195.93;25.60;;;4.60;99.90;;;;;;4938312;29;20418;-82
2022/01/13 06:27:33;;;;;;;262.67;32.15;;;4.60;99.90;;;;;;4954281;29;20116;-80
2022/01/13 06:29:59;;;;;;;252.43;31.55;;;4.60;99.90;;;;;;4954096;29;20085;-80
2022/01/13 06:32:25;;;;;;;261.38;31.90;;;4.60;99.90;;;;;;4954321;29;20051;-79
2022/01/13 06:34:51;;;;;;;215.75;31.10;;;4.60;99.90;;;;;;4954079;29;20090;-82
2022/01/13 06:37:17;;;;;;;228.27;30.60;;;4.70;99.90;;;;;;4954057;29;20078;-81
2022/01/13 06:39:44;;;;;;;273.50;32.42;;;4.60;99.90;;;;;;4954033;29;20054;-80
2022/01/13 06:42:10;;;;;;;214.35;30.42;;;4.60;99.90;;;;;;4955508;28;20047;-80
2022/01/13 06:44:36;;;;;;;225.85;30.33;;;4.60;99.90;;;;;;4953930;29;20046;-81
2022/01/13 06:47:02;;;;;;;206.73;30.02;;;4.60;99.90;;;;;;4954057;29;20050;-81
2022/01/13 06:49:28;;;;;;;241.70;30.83;;;4.70;99.90;;;;;;4938301;29;20395;-80
2022/01/13 06:51:54;;;;;;;216.07;29.40;;;4.70;99.90;;;;;;4955143;28;20035;-81
2022/01/13 06:54:19;;;;;;;198.65;26.33;;;4.70;99.90;;;;;;4954242;29;20046;-81
2022/01/13 06:56:45;;;;;;;200.60;31.17;;;4.60;99.90;;;;;;4953953;29;20039;-80
2022/01/13 06:59:12;;;;;;;206.52;28.80;;;4.70;99.90;;;;;;4954144;29;20070;-80
2022/01/13 07:01:39;;;;;;;222.27;29.73;;;4.70;99.90;;;;;;4953696;28;20044;-82
2022/01/13 07:04:05;;;;;;;165.90;23.40;;;4.60;99.90;;;;;;4940837;29;20047;-81
2022/01/13 07:06:33;;;;;;;202.27;27.65;;;4.60;99.90;;;;;;4957583;29;20047;-81
2022/01/13 07:08:59;;;;;;;201.70;27.45;;;4.60;99.90;;;;;;4958012;29;20399;-80
2022/01/13 07:11:24;;;;;;;224.45;30.67;;;4.60;99.90;;;;;;4957565;29;20092;-81
2022/01/13 07:13:50;;;;;;;205.70;27.73;;;4.70;99.90;;;;;;4957895;29;20043;-81
2022/01/13 07:16:15;;;;;;;162.85;26.83;;;4.60;99.90;;;;;;4957809;29;20049;-79
2022/01/13 07:18:41;;;;;;;171.05;26.02;;;4.70;99.90;;;;;;4957604;29;20090;-79
2022/01/13 07:21:09;;;;;;;192.85;29.83;;;4.70;99.90;;;;;;4957484;29;20093;-82
2022/01/13 07:23:35;;;;;;;222.35;30.17;;;4.70;99.90;;;;;;4957550;29;20074;-80
2022/01/13 07:26:02;;;;;;;241.82;31.75;;;4.70;99.90;;;;;;4957291;29;20172;-82
2022/01/13 07:28:29;;;;;;;238.10;33.65;;;4.70;99.90;;;;;;4957718;29;20050;-81
2022/01/13 07:30:56;;;;;;;208.88;31.38;;;4.70;99.90;;;;;;4957051;29;20166;-80
2022/01/13 07:33:22;;;;;;;249.98;34.20;;;4.70;99.90;;;;;;4957794;29;20054;-81
2022/01/13 07:35:48;;;;;;;210.13;28.75;;;4.70;99.90;;;;;;4957127;29;20047;-81
2022/01/13 07:38:13;;;;;;;193.35;29.60;;;4.80;99.90;;;;;;4957056;29;20043;-79
2022/01/13 07:40:39;;;;;;;217.30;30.13;;;4.80;99.90;;;;;;4957026;29;20160;-81
2022/01/13 07:43:05;;;;;;;231.05;31.15;;;4.80;99.90;;;;;;4957212;29;20039;-80
2022/01/13 07:45:30;;;;;;;241.85;29.92;;;4.80;99.90;;;;;;4957058;29;20035;-82
2022/01/13 07:47:56;;;;;;;206.18;30.80;;;4.80;99.90;;;;;;4956788;29;20047;-82
2022/01/13 07:50:22;;;;;;;245.05;32.25;;;4.80;99.90;;;;;;4957009;29;20043;-81
2022/01/13 07:52:48;;;;;;;254.95;32.70;;;4.80;99.90;;;;;;4940912;29;20039;-80
2022/01/13 07:55:13;;;;;;;240.98;32.28;;;4.90;99.90;;;;;;4956657;29;20047;-82
2022/01/13 07:57:39;;;;;;;234.40;30.83;;;4.90;99.90;;;;;;4956777;29;20384;-80
2022/01/13 08:00:07;;;;;;;262.73;33.88;;;4.90;99.90;;;;;;4940618;29;20047;-81
2022/01/13 08:02:33;;;;;;;263.35;32.75;;;4.90;99.90;;;;;;4940703;29;20051;-81
2022/01/13 08:04:58;;;;;;;308.15;35.40;;;4.90;99.90;;;;;;4956529;29;20039;-83
2022/01/13 08:07:24;;;;;;;202.25;28.85;;;4.90;99.90;;;;;;4968148;28;20166;-83
2022/01/13 08:09:49;;;;;;;278.17;32.65;;;4.90;99.90;;;;;;4976271;28;20379;-81
2022/01/13 08:12:15;;;;;;;243.70;32.25;;;4.90;99.90;;;;;;4975927;28;20089;-81
2022/01/13 08:14:41;;;;;;;224.13;31.95;;;4.90;99.90;;;;;;4976395;28;20031;-81
2022/01/13 08:17:07;;;;;;;251.25;32.55;;;4.90;99.90;;;;;;4974807;28;20043;-83
2022/01/13 08:19:48;;;;;;;249.77;32.63;;;4.90;99.90;;;;;;4958777;28;20512;-81
2022/01/13 08:22:15;;;;;;;242.48;30.00;;;5.00;99.90;;;;;;4959687;28;20061;-81
2022/01/13 08:24:42;;;;;;;250.60;30.73;;;5.00;99.90;;;;;;4959227;28;20121;-80
2022/01/13 08:27:08;;;;;;;207.65;24.98;;;5.00;99.90;;;;;;4975582;28;20395;-80
2022/01/13 08:29:33;;;;;;;258.35;34.10;;;5.00;99.90;;;;;;4975740;28;20090;-81
2022/01/13 08:32:00;;;;;;;312.40;37.00;;;5.00;99.90;;;;;;4975324;28;20494;-80
2022/01/13 08:34:26;;;;;;;295.52;36.67;;;5.00;99.90;;;;;;4959381;28;20050;-83
2022/01/13 08:36:52;;;;;;;292.30;34.40;;;5.00;99.90;;;;;;4975577;28;20045;-81
2022/01/13 08:39:18;;;;;;;294.63;36.67;;;5.10;99.90;;;;;;4975813;28;20175;-81
2022/01/13 08:41:45;;;;;;;281.05;37.75;;;5.10;99.90;;;;;;4975426;28;20046;-81
2022/01/13 08:44:10;;;;;;;261.58;35.95;;;5.10;99.90;;;;;;4975100;28;20058;-82
2022/01/13 08:46:36;;;;;;;303.05;38.00;;;5.10;99.90;;;;;;4975740;28;20432;-83
2022/01/13 08:49:03;;;;;;;257.10;34.63;;;5.20;99.90;;;;;;4974988;28;20535;-81
2022/01/13 08:51:29;;;;;;;276.45;36.83;;;5.20;99.90;;;;;;4976832;28;20057;-82
2022/01/13 08:53:55;;;;;;;279.30;36.45;;;5.20;99.90;;;;;;4975152;28;20445;-80
2022/01/13 08:56:21;;;;;;;236.13;30.60;;;5.30;99.90;;;;;;4974874;28;20077;-82
2022/01/13 08:58:47;;;;;;;266.17;35.63;;;5.30;99.90;;;;;;4975034;28;20169;-79
2022/01/13 09:01:13;;;;;;;274.58;36.67;;;5.30;99.90;;;;;;4975017;28;20082;-79
2022/01/13 09:03:39;;;;;;;239.85;35.38;;;5.30;99.90;;;;;;4974793;28;20042;-80
2022/01/13 09:06:04;;;;;;;260.17;34.90;;;5.40;99.90;;;;;;4974662;28;20042;-79
2022/01/13 09:08:30;;;;;;;218.85;32.70;;;5.40;99.90;;;;;;4974624;28;20039;-80
2022/01/13 09:10:56;;;;;;;247.15;34.50;;;5.30;99.90;;;;;;4974724;28;20126;-80
2022/01/13 09:13:22;;;;;;;255.05;35.75;;;5.40;99.90;;;;;;4974549;28;20035;-81
2022/01/13 09:15:58;;;;;;;250.82;34.72;;;5.40;99.90;;;;;;4959004;28;20130;-80
2022/01/13 09:18:44;;;;;;;293.98;39.00;;;5.40;99.90;;;;;;4974497;28;20551;-79
2022/01/13 09:21:10;;;;;;;;;;;5.40;99.90;;;;;;4974983;28;20043;-78
2022/01/13 09:23:36;;;;;;;255.43;37.45;;;5.50;99.90;;;;;;4958306;28;19929;-80
2022/01/13 09:26:03;;;;;;;267.17;37.30;;;5.50;99.90;;;;;;4973271;28;20042;-80
2022/01/13 09:28:29;;;;;;;228.90;35.75;;;5.50;99.90;;;;;;4974456;28;20087;-79
2022/01/13 09:30:54;;;;;;;246.50;36.00;;;5.50;99.90;;;;;;4974835;28;20064;-81
2022/01/13 09:33:21;;;;;;;244.93;36.22;;;5.60;99.90;;;;;;4975882;28;20110;-80
2022/01/13 09:35:47;;;;;;;252.30;35.17;;;5.60;99.90;;;;;;4975107;28;20376;-80
2022/01/13 09:38:13;;;;;;;244.02;37.30;;;5.60;99.90;;;;;;4974258;28;20518;-81
2022/01/13 09:40:42;;;;;;;238.88;36.70;;;5.60;99.90;;;;;;4974007;28;20074;-80
2022/01/13 09:43:08;;;;;;;223.73;36.75;;;5.60;99.90;;;;;;4953374;28;20118;-80
2022/01/13 09:45:35;;;;;;;276.10;38.05;;;5.60;99.90;;;;;;4973094;28;20353;-80
2022/01/13 09:48:01;;;;;;;225.75;33.70;;;5.70;99.90;;;;;;4973590;28;20060;-80
2022/01/13 09:50:27;;;;;;;293.35;40.22;;;5.70;99.90;;;;;;4973969;28;20031;-80
2022/01/13 09:52:53;;;;;;;248.60;39.10;;;5.70;99.90;;;;;;4974663;28;20050;-79
2022/01/13 09:55:19;;;;;;;232.80;37.15;;;5.70;99.90;;;;;;4957122;28;20050;-82
2022/01/13 09:57:48;;;;;;;159.00;25.20;;;5.70;99.90;;;;;;4974401;28;20388;-81
2022/01/13 10:00:17;;;;;;;266.17;40.50;;;5.70;99.90;;;;;;4973369;28;20126;-80
2022/01/13 10:02:43;;;;;;;234.52;38.42;;;5.80;99.90;;;;;;4974734;28;20201;-80
2022/01/13 10:05:09;;;;;;;242.60;37.63;;;5.80;99.90;;;;;;4974960;28;20126;-84
2022/01/13 10:07:43;;;;;;;285.25;38.22;;;5.80;99.90;;;;;;4974799;28;20046;-80
2022/01/13 10:10:20;;;;;;;235.88;35.95;;;5.80;99.90;;;;;;4975225;28;20081;-80
2022/01/13 10:12:58;;;;;;;214.73;32.20;;;5.80;99.90;;;;;;4973565;28;20049;-79
2022/01/13 10:18:08;;;;;;;257.10;40.38;;;5.80;99.90;;;;;;4973156;28;20383;-80
2022/01/13 10:20:34;;;;;;;264.77;38.90;;;5.90;99.90;;;;;;4973228;28;20050;-80
2022/01/13 10:23:08;;;;;;;263.45;39.00;;;5.90;99.90;;;;;;4973297;28;20057;-80
2022/01/13 10:25:40;;;;;;;249.07;36.65;;;5.90;99.90;;;;;;4973072;28;20560;-80
2022/01/13 10:28:18;;;;;;;254.05;39.45;;;5.90;99.90;;;;;;4973617;28;20230;-79
2022/01/13 10:30:46;;;;;;;249.48;36.40;;;5.90;99.90;;;;;;4957374;28;20118;-81
2022/01/13 10:33:25;;;;;;;225.52;38.90;;;6.00;99.90;;;;;;4957082;28;20047;-79
2022/01/13 10:36:05;;;;;;;248.77;38.35;;;6.00;99.90;;;;;;4957191;28;20491;-80
2022/01/13 10:38:58;;;;;;;194.77;30.85;;;6.10;99.90;;;;;;4973415;28;20137;-80
2022/01/13 10:44:13;;;;;;;238.38;35.05;;;6.10;99.90;;;;;;4973264;28;20137;-79
2022/01/13 10:46:59;;;;;;;248.02;36.05;;;6.10;99.90;;;;;;4956956;28;20047;-79
2022/01/13 10:49:34;;;;;;;;;;;6.10;99.90;;;;;;4973424;28;20488;-78
2022/01/13 10:52:27;;;;;;;195.05;31.42;;;6.10;99.90;;;;;;4956945;28;20381;-79
2022/01/13 10:55:12;;;;;;;214.85;33.88;;;6.20;99.90;;;;;;4973482;28;20101;-81
2022/01/13 10:57:41;;;;;;;212.15;33.15;;;6.20;99.90;;;;;;4974609;28;20121;-78
2022/01/13 11:00:28;;;;;;;221.82;35.72;;;6.20;99.90;;;;;;4981527;28;20066;-73
2022/01/13 11:03:07;;;;;;;213.30;36.25;;;6.20;99.90;;;;;;4985816;28;20057;-75
2022/01/13 11:05:44;;;;;;;227.88;35.50;;;6.20;99.90;;;;;;4977241;28;20078;-75
2022/01/13 11:08:10;;;;;;;240.23;36.72;;;6.20;99.90;;;;;;4973959;28;20422;-80
2022/01/13 11:10:48;;;;;;;208.88;37.53;;;6.20;99.90;;;;;;4957742;28;20070;-81
2022/01/13 11:13:19;;;;;;;191.50;35.55;;;6.20;99.90;;;;;;4973185;28;20039;-79
2022/01/13 11:15:49;;;;;;;173.88;32.20;;;6.20;99.90;;;;;;4973281;28;20042;-81
2022/01/13 11:18:19;;;;;;;188.88;33.25;;;6.20;99.90;;;;;;4973434;28;20053;-79
2022/01/13 11:20:46;;;;;;;171.80;36.15;;;6.20;99.90;;;;;;4972898;28;20051;-78
2022/01/13 11:23:12;;;;;;;209.60;37.40;;;6.20;99.90;;;;;;4972988;28;20042;-80
2022/01/13 11:25:38;;;;;;;185.82;33.80;;;6.20;99.90;;;;;;4972865;28;20043;-80
2022/01/13 11:28:08;;;;;;;184.82;35.60;;;6.20;99.90;;;;;;4973215;28;20557;-80
2022/01/13 11:30:34;;;;;;;155.85;31.58;;;6.20;99.90;;;;;;4973506;28;20565;-80
2022/01/13 11:32:59;;;;;;;199.65;37.95;;;6.30;99.90;;;;;;4972751;28;20122;-80
2022/01/13 11:35:28;;;;;;;180.90;34.95;;;6.30;99.90;;;;;;4972800;28;20153;-79
2022/01/13 11:37:56;;;;;;;204.23;39.30;;;6.30;99.90;;;;;;4972723;28;20050;-79
2022/01/13 11:40:34;;;;;;;193.38;41.53;;;6.30;99.90;;;;;;4956638;28;20181;-80
2022/01/13 11:43:02;;;;;;;220.30;40.90;;;6.30;99.90;;;;;;4972734;28;20058;-81
2022/01/13 11:45:29;;;;;;;205.00;41.60;;;6.30;99.90;;;;;;4972376;28;20047;-80
2022/01/13 11:48:16;;;;;;;179.80;36.42;;;6.30;99.90;;;;;;4972567;28;20074;-79
2022/01/13 11:50:47;;;;;;;196.50;39.58;;;6.30;99.90;;;;;;4977388;28;20039;-80
2022/01/13 11:53:23;;;;;;;201.25;41.08;;;6.30;99.90;;;;;;4975989;28;20483;-79
2022/01/13 11:56:04;;;;;;;185.38;37.90;;;6.30;99.90;;;;;;4976364;28;20047;-78
2022/01/13 11:58:41;;;;;;;210.45;38.47;;;6.30;99.90;;;;;;4978045;28;20380;-80
2022/01/13 12:01:19;;;;;;;159.77;33.35;;;6.30;99.90;;;;;;4959752;28;20043;-80
2022/01/13 12:03:52;;;;;;;187.77;37.60;;;6.30;99.90;;;;;;4975963;28;20050;-79
2022/01/13 12:06:51;;;;;;;156.57;30.10;;;6.30;99.90;;;;;;4976595;28;20047;-80
2022/01/13 12:09:25;;;;;;;165.48;35.75;;;6.30;99.90;;;;;;4933795;28;20062;-79
2022/01/13 12:11:56;;;;;;;182.57;41.17;;;6.30;99.90;;;;;;4959785;28;20423;-79
2022/01/13 12:14:24;;;;;;;190.85;39.53;;;6.40;99.90;;;;;;4959607;28;20042;-78
2022/01/13 12:16:59;;;;;;;185.38;42.22;;;6.40;99.90;;;;;;4959503;28;20080;-80
2022/01/13 12:19:47;;;;;;;166.82;39.92;;;6.40;99.90;;;;;;4975548;28;20047;-81
2022/01/13 12:22:33;;;;;;;191.15;43.50;;;6.40;99.90;;;;;;4977055;28;20066;-80
2022/01/13 12:25:01;;;;;;;164.95;39.15;;;6.40;99.90;;;;;;4975453;28;20138;-80
2022/01/13 12:27:39;;;;;;;164.65;41.58;;;6.40;99.90;;;;;;4959378;28;20049;-81
2022/01/13 12:30:12;;;;;;;191.27;43.78;;;6.50;99.90;;;;;;4975417;28;20038;-79
2022/01/13 12:32:49;;;;;;;126.63;31.98;;;6.40;99.90;;;;;;4975585;28;20137;-78
2022/01/13 12:35:28;;;;;;;153.60;41.60;;;6.50;99.90;;;;;;4975591;28;20047;-79
2022/01/13 12:38:10;;;;;;;156.68;40.90;;;6.50;99.90;;;;;;4975580;28;20039;-79
2022/01/13 12:40:45;;;;;;;175.00;43.40;;;6.50;99.90;;;;;;4975099;28;20101;-79
2022/01/13 12:43:22;;;;;;;148.82;41.55;;;6.50;99.90;;;;;;4959421;28;20377;-80
2022/01/13 12:45:49;;;;;;;137.13;39.10;;;6.50;99.90;;;;;;4975130;28;20047;-82
2022/01/13 12:48:15;;;;;;;111.55;31.80;;;6.50;99.90;;;;;;4975090;28;20035;-79
2022/01/13 12:50:42;;;;;;;128.63;37.78;;;6.60;99.90;;;;;;4974837;28;20039;-81
2022/01/13 12:53:15;;;;;;;120.82;39.08;;;6.60;99.90;;;;;;4975174;28;20117;-79
2022/01/13 12:55:53;;;;;;;137.13;40.65;;;6.60;99.90;;;;;;4974990;28;20047;-80
2022/01/13 12:58:21;;;;;;;131.40;42.28;;;6.60;99.90;;;;;;4974977;28;20105;-81
2022/01/13 13:00:47;;;;;;;112.53;39.35;;;6.70;99.90;;;;;;4973681;28;20447;-80
2022/01/13 13:03:12;;;;;;;132.27;39.38;;;6.70;99.90;;;;;;4974914;28;20035;-79
2022/01/13 13:05:42;;;;;;;129.15;41.25;;;6.70;99.90;;;;;;4974741;28;20133;-80
2022/01/13 13:08:12;;;;;;;129.88;42.28;;;6.80;99.90;;;;;;4974809;28;20054;-80
2022/01/13 13:10:44;;;;;;;123.07;40.67;;;6.80;99.90;;;;;;4974583;28;20074;-79
2022/01/13 13:13:12;;;;;;;123.97;41.38;;;6.80;99.90;;;;;;4958838;28;20034;-78
2022/01/13 13:18:03;;;;;;;125.80;40.55;;;6.80;99.90;;;;;;4974756;28;20452;-79
2022/01/13 13:20:32;;;;;;;134.43;43.70;;;6.80;99.90;;;;;;4974413;28;20081;-80
2022/01/13 13:23:00;;;;;;;109.93;38.90;;;6.90;99.90;;;;;;4958455;28;20043;-80
2022/01/13 13:25:41;;;;;;;104.45;37.83;;;6.90;99.90;;;;;;4974368;28;20085;-79
2022/01/13 13:28:32;;;;;;;97.95;37.92;;;6.90;99.90;;;;;;4974372;28;20121;-79
2022/01/13 13:31:13;;;;;;;119.35;38.55;;;6.90;99.90;;;;;;4974287;28;20049;-82
2022/01/13 13:33:43;;;;;;;104.47;37.28;;;7.00;99.90;;;;;;4974586;28;20466;-80
2022/01/13 13:36:15;;;;;;;81.07;32.17;;;7.00;99.90;;;;;;4974374;28;20474;-79
2022/01/13 13:38:53;;;;;;;98.70;35.03;;;7.00;99.90;;;;;;4974212;28;20093;-79
2022/01/13 13:41:22;;;;;;;89.45;35.20;;;7.00;99.90;;;;;;4974012;28;20105;-78
2022/01/13 13:43:48;;;;;;;87.55;33.38;;;7.00;99.90;;;;;;4974258;28;20038;-80
2022/01/13 13:46:15;;;;;;;88.47;35.42;;;7.00;99.90;;;;;;4975637;28;20120;-79
2022/01/13 13:48:42;;;;;;;81.97;33.83;;;7.00;99.90;;;;;;4974023;28;20050;-79
2022/01/13 13:51:08;;;;;;;90.53;35.53;;;7.00;99.90;;;;;;4957751;28;20101;-80
2022/01/13 13:53:33;;;;;;;83.88;34.70;;;7.00;99.90;;;;;;4973928;28;20035;-80
2022/01/13 13:56:02;;;;;;;90.30;36.25;;;7.00;99.90;;;;;;4958077;28;20039;-79
2022/01/13 13:58:28;;;;;;;94.75;34.90;;;7.00;99.90;;;;;;4974099;28;20057;-80
2022/01/13 14:01:01;;;;;;;90.38;34.20;;;7.00;99.90;;;;;;4973895;28;20047;-79
2022/01/13 14:03:41;;;;;;;90.15;34.90;;;7.00;99.90;;;;;;4973147;28;20507;-82
2022/01/13 14:06:07;;;;;;;82.78;29.25;;;7.00;99.90;;;;;;4974278;28;20055;-79
2022/01/13 14:08:49;;;;;;;89.00;36.33;;;7.00;99.90;;;;;;4974142;28;20047;-79
2022/01/13 14:11:14;;;;;;;86.97;34.17;;;7.00;99.90;;;;;;4973258;28;20085;-79
2022/01/13 14:13:40;;;;;;;86.55;35.17;;;7.00;99.90;;;;;;4974283;28;20494;-79
2022/01/13 14:16:05;;;;;;;88.43;34.30;;;7.00;99.90;;;;;;4957517;28;20053;-79
2022/01/13 14:18:36;;;;;;;93.00;36.85;;;7.00;99.90;;;;;;4973333;28;20086;-81
2022/01/13 14:21:02;;;;;;;79.38;34.17;;;7.00;99.90;;;;;;4974182;28;20371;-78
2022/01/13 14:23:33;;;;;;;75.28;32.28;;;7.00;99.90;;;;;;4973591;28;20479;-79
2022/01/13 14:26:09;;;;;;;79.38;34.83;;;7.00;99.90;;;;;;4975037;28;20074;-78
2022/01/13 14:28:46;;;;;;;81.45;33.83;;;7.00;99.90;;;;;;4973581;28;20469;-80
2022/01/13 14:31:12;;;;;;;93.88;36.67;;;7.00;99.90;;;;;;4973767;28;20074;-81
2022/01/13 14:33:43;;;;;;;91.82;34.17;;;7.00;99.90;;;;;;4973524;28;20537;-80
2022/01/13 14:36:15;;;;;;;93.35;34.85;;;7.00;99.90;;;;;;4973594;28;20159;-79
2022/01/13 14:38:46;;;;;;;86.07;34.10;;;7.00;99.90;;;;;;4973204;28;20050;-80
2022/01/13 14:41:26;;;;;;;93.18;36.17;;;6.90;99.90;;;;;;4957048;28;20235;-81
2022/01/13 14:44:07;;;;;;;98.85;36.17;;;7.00;99.90;;;;;;4973230;28;20042;-81
2022/01/13 14:46:39;;;;;;;98.72;37.13;;;7.00;99.90;;;;;;4973083;28;20053;-81
2022/01/13 14:49:06;;;;;;;102.80;36.60;;;6.90;99.90;;;;;;4972103;28;20035;-81
2022/01/13 14:51:33;;;;;;;91.65;34.13;;;6.90;99.90;;;;;;4969350;28;20042;-80
2022/01/13 14:53:59;;;;;;;101.60;38.40;;;6.90;99.90;;;;;;4967257;28;20081;-81
2022/01/13 14:56:26;;;;;;;101.35;37.08;;;6.90;99.90;;;;;;4937654;29;20043;-80
2022/01/13 14:58:52;;;;;;;96.78;37.47;;;6.90;99.90;;;;;;4953802;28;20050;-80
2022/01/13 15:01:18;;;;;;;107.63;39.20;;;6.90;99.90;;;;;;4955017;28;20397;-81
2022/01/13 15:03:45;;;;;;;93.25;33.90;;;6.90;99.90;;;;;;4953934;28;20070;-81
2022/01/13 15:06:10;;;;;;;97.63;35.83;;;6.90;99.90;;;;;;4970070;28;20411;-82
2022/01/13 15:08:37;;;;;;;105.45;36.72;;;6.80;99.90;;;;;;4973667;28;20042;-79
2022/01/13 15:11:04;;;;;;;100.95;37.53;;;6.80;99.90;;;;;;4958929;28;20066;-79
2022/01/13 15:13:29;;;;;;;109.03;36.92;;;6.90;99.90;;;;;;4980585;28;20047;-77
2022/01/13 15:15:55;;;;;;;109.45;40.33;;;6.80;99.90;;;;;;4979657;28;20046;-75
2022/01/13 15:18:22;;;;;;;119.95;38.67;;;6.80;99.90;;;;;;4957952;28;20067;-78
2022/01/13 15:20:48;;;;;;;108.22;38.55;;;6.80;99.90;;;;;;4967310;28;20122;-81
2022/01/13 15:23:14;;;;;;;106.43;38.42;;;6.80;99.90;;;;;;4943769;29;20526;-81
2022/01/13 15:25:40;;;;;;;108.20;40.30;;;6.80;99.90;;;;;;4967285;28;20513;-80
2022/01/13 15:28:07;;;;;;;104.22;38.00;;;6.80;99.90;;;;;;4962984;28;20391;-80
2022/01/13 15:30:33;;;;;;;108.90;40.13;;;6.80;99.90;;;;;;4969005;28;20039;-80
2022/01/13 15:32:58;;;;;;;104.28;38.03;;;6.80;99.90;;;;;;4953331;28;20049;-82
2022/01/13 15:35:24;;;;;;;115.40;40.05;;;6.80;99.90;;;;;;4969562;28;20129;-81
2022/01/13 15:37:50;;;;;;;108.63;38.83;;;6.80;99.90;;;;;;4941517;28;20693;-80
2022/01/13 15:40:17;;;;;;;122.47;41.00;;;6.80;99.90;;;;;;4958286;28;20051;-81
2022/01/13 15:42:45;;;;;;;107.38;42.75;;;6.80;99.90;;;;;;4940829;29;20453;-80
2022/01/13 15:45:13;;;;;;;108.40;40.03;;;6.70;99.90;;;;;;4950238;28;20042;-80
2022/01/13 15:47:40;;;;;;;115.00;40.40;;;6.70;99.90;;;;;;4943410;28;20039;-82
2022/01/13 15:50:08;;;;;;;124.95;41.15;;;6.70;99.90;;;;;;4959420;28;20483;-80
2022/01/13 15:52:35;;;;;;;115.25;41.47;;;6.70;99.90;;;;;;4964182;28;20558;-80
2022/01/13 15:55:01;;;;;;;107.65;42.08;;;6.60;99.90;;;;;;4968806;28;20583;-82
2022/01/13 15:57:26;;;;;;;113.90;42.65;;;6.60;99.90;;;;;;4976062;28;20118;-80
2022/01/13 15:59:52;;;;;;;127.40;43.58;;;6.60;99.90;;;;;;4959365;28;20054;-81
2022/01/13 16:02:18;;;;;;;132.43;46.53;;;6.60;99.90;;;;;;4961534;28;20046;-81
2022/01/13 16:04:44;;;;;;;127.78;43.28;;;6.50;99.90;;;;;;4969537;28;20098;-81
2022/01/13 16:07:10;;;;;;;128.10;42.83;;;6.50;99.90;;;;;;4962132;28;20047;-80
2022/01/13 16:09:36;;;;;;;114.38;38.55;;;6.50;99.90;;;;;;4962386;28;20047;-81
2022/01/13 16:12:02;;;;;;;126.75;43.47;;;6.40;99.90;;;;;;4955430;28;20447;-81
2022/01/13 16:14:29;;;;;;;126.57;41.25;;;6.40;99.90;;;;;;4955134;28;20050;-80
2022/01/13 16:16:54;;;;;;;128.60;42.10;;;6.40;99.90;;;;;;4939378;29;20047;-80
2022/01/13 16:19:20;;;;;;;159.07;43.53;;;6.30;99.90;;;;;;4939351;29;20524;-80
2022/01/13 16:21:46;;;;;;;173.18;47.55;;;6.30;99.90;;;;;;4970463;28;20049;-79
2022/01/13 16:24:11;;;;;;;157.40;44.40;;;6.30;99.90;;;;;;4955701;28;20046;-81
2022/01/13 16:26:37;;;;;;;139.07;40.00;;;6.30;99.90;;;;;;4939271;29;20428;-81
2022/01/13 16:29:04;;;;;;;134.57;43.85;;;6.30;99.90;;;;;;4955141;28;20039;-80
2022/01/13 16:31:30;;;;;;;110.70;35.10;;;6.30;99.90;;;;;;4951901;28;20034;-80
2022/01/13 16:33:56;;;;;;;176.65;52.60;;;6.30;99.90;;;;;;4958294;28;20097;-80
2022/01/13 16:36:22;;;;;;;159.85;47.58;;;6.30;99.90;;;;;;4958573;28;20089;-81
2022/01/13 16:38:49;;;;;;;154.38;45.35;;;6.30;99.90;;;;;;4950895;29;20043;-80
2022/01/13 16:41:14;;;;;;;161.50;46.10;;;6.30;99.90;;;;;;4955161;28;20432;-81
2022/01/13 16:43:40;;;;;;;183.65;48.08;;;6.30;99.90;;;;;;4954981;28;20054;-80
2022/01/13 16:46:07;;;;;;;167.38;51.72;;;6.30;99.90;;;;;;4970838;28;20411;-83
2022/01/13 16:48:33;;;;;;;165.90;47.25;;;6.30;99.90;;;;;;4955222;28;20047;-83
2022/01/13 16:51:02;;;;;;;164.45;49.90;;;6.20;99.90;;;;;;4946449;28;20062;-81